sensor_id;sensor_type;location;lat;lon;timestamp;temperature;humidity
41168;DHT22;26906;45.658;9.272;2023-02-28T06:34:23;5.70;99.90
41168;DHT22;26906;45.658;9.272;2023-02-28T06:36:50;6.80;99.90
41168;DHT22;26906;45.658;9.272;2023-02-28T06:39:17;5.90;99.90
41168;DHT22;26906;45.658;9.272;2023-02-28T06:41:46;5.80;99.90
41168;DHT22;26906;45.658;9.272;2023-02-28T06:44:17;5.90;99.90
41168;DHT22;26906;45.658;9.272;2023-02-28T06:46:44;6.00;99.90
41168;DHT22;26906;45.658;9.272;2023-02-28T06:49:11;6.00;99.90
41168;DHT22;26906;45.658;9.272;2023-02-28T06:51:38;6.10;99.90
41168;DHT22;26906;45.658;9.272;2023-02-28T06:54:05;6.10;99.90
41168;DHT22;26906;45.658;9.272;2023-02-28T06:56:31;6.20;99.90
41168;DHT22;26906;45.658;9.272;2023-02-28T06:58:56;6.10;99.90
41168;DHT22;26906;45.658;9.272;2023-02-28T07:01:22;6.00;99.90
41168;DHT22;26906;45.658;9.272;2023-02-28T07:03:54;6.10;99.90
41168;DHT22;26906;45.658;9.272;2023-02-28T07:06:21;6.30;99.90
41168;DHT22;26906;45.658;9.272;2023-02-28T07:08:52;6.00;99.90
41168;DHT22;26906;45.658;9.272;2023-02-28T07:11:19;6.00;99.90
41168;DHT22;26906;45.658;9.272;2023-02-28T07:13:44;6.70;99.90
41168;DHT22;26906;45.658;9.272;2023-02-28T07:16:12;6.10;99.90
41168;DHT22;26906;45.658;9.272;2023-02-28T07:18:38;6.40;99.90
41168;DHT22;26906;45.658;9.272;2023-02-28T07:21:07;6.00;99.90
41168;DHT22;26906;45.658;9.272;2023-02-28T07:23:34;6.30;99.90
41168;DHT22;26906;45.658;9.272;2023-02-28T07:26:00;6.10;99.90
41168;DHT22;26906;45.658;9.272;2023-02-28T07:28:26;6.10;99.90
41168;DHT22;26906;45.658;9.272;2023-02-28T07:30:51;6.00;99.90
41168;DHT22;26906;45.658;9.272;2023-02-28T07:33:17;5.90;99.90
41168;DHT22;26906;45.658;9.272;2023-02-28T07:35:43;6.00;99.90
41168;DHT22;26906;45.658;9.272;2023-02-28T07:38:09;5.90;99.90
41168;DHT22;26906;45.658;9.272;2023-02-28T07:40:35;5.90;99.90
41168;DHT22;26906;45.658;9.272;2023-02-28T07:43:03;6.10;99.90
41168;DHT22;26906;45.658;9.272;2023-02-28T07:45:29;6.00;99.90
41168;DHT22;26906;45.658;9.272;2023-02-28T07:47:55;6.50;99.90
41168;DHT22;26906;45.658;9.272;2023-02-28T07:50:21;6.60;99.90
41168;DHT22;26906;45.658;9.272;2023-02-28T07:52:47;6.30;99.90
41168;DHT22;26906;45.658;9.272;2023-02-28T07:55:13;6.40;99.90
41168;DHT22;26906;45.658;9.272;2023-02-28T07:57:40;6.50;99.90
41168;DHT22;26906;45.658;9.272;2023-02-28T08:00:08;6.70;99.90
41168;DHT22;26906;45.658;9.272;2023-02-28T08:02:39;6.80;99.90
41168;DHT22;26906;45.658;9.272;2023-02-28T08:05:06;6.90;99.90
41168;DHT22;26906;45.658;9.272;2023-02-28T08:07:35;7.00;99.90
41168;DHT22;26906;45.658;9.272;2023-02-28T08:10:00;7.10;99.90
41168;DHT22;26906;45.658;9.272;2023-02-28T08:12:26;7.10;99.90
41168;DHT22;26906;45.658;9.272;2023-02-28T08:14:52;7.40;99.90
41168;DHT22;26906;45.658;9.272;2023-02-28T08:17:18;7.70;99.90
41168;DHT22;26906;45.658;9.272;2023-02-28T08:19:46;7.70;99.90
41168;DHT22;26906;45.658;9.272;2023-02-28T08:22:12;7.60;99.90
41168;DHT22;26906;45.658;9.272;2023-02-28T08:24:40;7.50;99.90
41168;DHT22;26906;45.658;9.272;2023-02-28T08:27:07;7.60;99.90
41168;DHT22;26906;45.658;9.272;2023-02-28T08:29:32;7.70;99.90
41168;DHT22;26906;45.658;9.272;2023-02-28T08:31:58;7.70;99.90
41168;DHT22;26906;45.658;9.272;2023-02-28T08:34:24;7.50;99.90
41168;DHT22;26906;45.658;9.272;2023-02-28T08:36:49;7.60;99.90
41168;DHT22;26906;45.658;9.272;2023-02-28T08:39:15;7.60;99.90
41168;DHT22;26906;45.658;9.272;2023-02-28T08:41:42;7.70;99.90
41168;DHT22;26906;45.658;9.272;2023-02-28T08:44:08;7.70;99.90
41168;DHT22;26906;45.658;9.272;2023-02-28T08:46:33;7.80;99.90
41168;DHT22;26906;45.658;9.272;2023-02-28T08:48:59;7.90;99.90
41168;DHT22;26906;45.658;9.272;2023-02-28T08:51:28;7.90;99.90
41168;DHT22;26906;45.658;9.272;2023-02-28T08:53:55;8.00;99.90
41168;DHT22;26906;45.658;9.272;2023-02-28T08:56:21;8.10;99.90
41168;DHT22;26906;45.658;9.272;2023-02-28T08:58:49;8.10;99.90
41168;DHT22;26906;45.658;9.272;2023-02-28T09:01:20;8.20;99.90
41168;DHT22;26906;45.658;9.272;2023-02-28T09:03:48;8.20;99.90
41168;DHT22;26906;45.658;9.272;2023-02-28T09:06:15;8.30;99.90
41168;DHT22;26906;45.658;9.272;2023-02-28T09:08:42;8.40;99.90
41168;DHT22;26906;45.658;9.272;2023-02-28T09:11:08;8.50;99.90
41168;DHT22;26906;45.658;9.272;2023-02-28T09:13:34;8.60;99.90
41168;DHT22;26906;45.658;9.272;2023-02-28T09:16:02;8.60;99.90
41168;DHT22;26906;45.658;9.272;2023-02-28T09:18:29;8.60;99.90
41168;DHT22;26906;45.658;9.272;2023-02-28T09:20:58;8.70;99.90
41168;DHT22;26906;45.658;9.272;2023-02-28T09:23:24;8.60;99.90
41168;DHT22;26906;45.658;9.272;2023-02-28T09:25:51;8.80;99.90
41168;DHT22;26906;45.658;9.272;2023-02-28T09:28:18;8.90;99.90
41168;DHT22;26906;45.658;9.272;2023-02-28T09:30:46;9.10;99.90
41168;DHT22;26906;45.658;9.272;2023-02-28T09:33:13;9.20;99.90
41168;DHT22;26906;45.658;9.272;2023-02-28T09:35:39;9.30;99.90
41168;DHT22;26906;45.658;9.272;2023-02-28T09:38:09;9.40;99.90
41168;DHT22;26906;45.658;9.272;2023-02-28T09:40:45;9.70;99.90
41168;DHT22;26906;45.658;9.272;2023-02-28T09:43:14;9.60;99.90
41168;DHT22;26906;45.658;9.272;2023-02-28T09:45:42;9.60;99.90
41168;DHT22;26906;45.658;9.272;2023-02-28T09:48:33;9.70;99.90
41168;DHT22;26906;45.658;9.272;2023-02-28T09:51:10;9.80;99.90
41168;DHT22;26906;45.658;9.272;2023-02-28T09:53:38;9.80;99.90
41168;DHT22;26906;45.658;9.272;2023-02-28T09:56:12;9.80;99.90
41168;DHT22;26906;45.658;9.272;2023-02-28T09:58:44;10.00;99.90
41168;DHT22;26906;45.658;9.272;2023-02-28T10:01:34;9.80;99.90
41168;DHT22;26906;45.658;9.272;2023-02-28T10:04:16;9.70;99.90
41168;DHT22;26906;45.658;9.272;2023-02-28T10:06:49;9.90;99.90
41168;DHT22;26906;45.658;9.272;2023-02-28T10:09:27;10.00;99.90
41168;DHT22;26906;45.658;9.272;2023-02-28T10:12:01;10.00;99.90
41168;DHT22;26906;45.658;9.272;2023-02-28T10:14:33;10.20;99.90
41168;DHT22;26906;45.658;9.272;2023-02-28T10:17:11;10.20;99.90
41168;DHT22;26906;45.658;9.272;2023-02-28T10:20:01;10.40;99.90
41168;DHT22;26906;45.658;9.272;2023-02-28T10:22:34;10.30;99.90
41168;DHT22;26906;45.658;9.272;2023-02-28T10:25:18;10.30;99.90
41168;DHT22;26906;45.658;9.272;2023-02-28T10:27:44;10.20;99.90
41168;DHT22;26906;45.658;9.272;2023-02-28T10:30:12;10.30;99.90
41168;DHT22;26906;45.658;9.272;2023-02-28T10:32:40;10.30;99.90
41168;DHT22;26906;45.658;9.272;2023-02-28T10:37:39;10.60;99.90
41168;DHT22;26906;45.658;9.272;2023-02-28T10:40:25;10.80;99.90
41168;DHT22;26906;45.658;9.272;2023-02-28T10:43:20;10.90;99.90
41168;DHT22;26906;45.658;9.272;2023-02-28T10:48:38;11.20;99.90
41168;DHT22;26906;45.658;9.272;2023-02-28T10:51:10;11.30;99.90
41168;DHT22;26906;45.658;9.272;2023-02-28T10:53:53;11.20;99.90
41168;DHT22;26906;45.658;9.272;2023-02-28T10:56:24;11.10;99.90
41168;DHT22;26906;45.658;9.272;2023-02-28T11:03:56;11.50;99.90
41168;DHT22;26906;45.658;9.272;2023-02-28T11:06:31;11.60;99.90
41168;DHT22;26906;45.658;9.272;2023-02-28T11:09:25;11.30;99.90
41168;DHT22;26906;45.658;9.272;2023-02-28T11:11:52;11.10;99.90
41168;DHT22;26906;45.658;9.272;2023-02-28T11:14:26;11.10;99.90
41168;DHT22;26906;45.658;9.272;2023-02-28T11:16:53;11.10;99.90
41168;DHT22;26906;45.658;9.272;2023-02-28T11:19:26;11.20;99.90
41168;DHT22;26906;45.658;9.272;2023-02-28T11:22:02;11.40;99.90
41168;DHT22;26906;45.658;9.272;2023-02-28T11:24:41;11.30;99.90
41168;DHT22;26906;45.658;9.272;2023-02-28T11:30:00;11.80;99.90
41168;DHT22;26906;45.658;9.272;2023-02-28T11:32:27;12.20;99.90
41168;DHT22;26906;45.658;9.272;2023-02-28T11:37:37;12.60;99.90
41168;DHT22;26906;45.658;9.272;2023-02-28T11:40:15;12.80;99.90
41168;DHT22;26906;45.658;9.272;2023-02-28T11:42:48;12.80;99.90
41168;DHT22;26906;45.658;9.272;2023-02-28T11:48:11;12.50;99.90
41168;DHT22;26906;45.658;9.272;2023-02-28T11:51:15;11.90;99.90
41168;DHT22;26906;45.658;9.272;2023-02-28T11:56:39;11.60;99.90
41168;DHT22;26906;45.658;9.272;2023-02-28T11:59:44;11.90;99.90
41168;DHT22;26906;45.658;9.272;2023-02-28T12:10:29;13.40;99.90
41168;DHT22;26906;45.658;9.272;2023-02-28T12:13:27;13.30;99.90
41168;DHT22;26906;45.658;9.272;2023-02-28T12:26:45;12.60;99.90
41168;DHT22;26906;45.658;9.272;2023-02-28T12:29:28;12.50;99.90
41168;DHT22;26906;45.658;9.272;2023-02-28T12:32:12;12.50;99.90
41168;DHT22;26906;45.658;9.272;2023-02-28T12:34:44;12.30;99.90
41168;DHT22;26906;45.658;9.272;2023-02-28T12:37:20;12.40;99.90
41168;DHT22;26906;45.658;9.272;2023-02-28T12:39:54;12.50;99.90
41168;DHT22;26906;45.658;9.272;2023-02-28T12:42:30;12.60;99.90
41168;DHT22;26906;45.658;9.272;2023-02-28T12:45:39;12.60;99.90
41168;DHT22;26906;45.658;9.272;2023-02-28T12:48:09;12.50;99.90
41168;DHT22;26906;45.658;9.272;2023-02-28T12:50:39;12.80;99.90
41168;DHT22;26906;45.658;9.272;2023-02-28T12:53:30;12.90;99.90
41168;DHT22;26906;45.658;9.272;2023-02-28T12:59:00;13.40;99.90
41168;DHT22;26906;45.658;9.272;2023-02-28T13:09:32;14.10;99.90
41168;DHT22;26906;45.658;9.272;2023-02-28T13:11:58;14.40;99.90
41168;DHT22;26906;45.658;9.272;2023-02-28T13:22:44;13.60;99.90
41168;DHT22;26906;45.658;9.272;2023-02-28T13:28:00;13.50;99.90
41168;DHT22;26906;45.658;9.272;2023-02-28T13:34:04;13.70;99.90
41168;DHT22;26906;45.658;9.272;2023-02-28T13:36:32;13.80;99.90
41168;DHT22;26906;45.658;9.272;2023-02-28T13:39:11;13.60;99.90
41168;DHT22;26906;45.658;9.272;2023-02-28T13:41:48;13.80;99.90
41168;DHT22;26906;45.658;9.272;2023-02-28T13:44:16;13.70;99.90
41168;DHT22;26906;45.658;9.272;2023-02-28T13:54:52;14.10;99.90
41168;DHT22;26906;45.658;9.272;2023-02-28T14:00:43;14.30;99.90
41168;DHT22;26906;45.658;9.272;2023-02-28T14:05:43;13.90;99.90
41168;DHT22;26906;45.658;9.272;2023-02-28T14:08:21;14.10;99.90
41168;DHT22;26906;45.658;9.272;2023-02-28T14:10:50;14.40;99.90
41168;DHT22;26906;45.658;9.272;2023-02-28T14:13:42;14.20;99.90
41168;DHT22;26906;45.658;9.272;2023-02-28T14:16:23;13.90;99.90
41168;DHT22;26906;45.658;9.272;2023-02-28T14:19:43;14.10;99.90
41168;DHT22;26906;45.658;9.272;2023-02-28T14:24:47;13.60;99.90
41168;DHT22;26906;45.658;9.272;2023-02-28T14:27:31;13.70;99.90
41168;DHT22;26906;45.658;9.272;2023-02-28T14:38:19;14.00;99.90
41168;DHT22;26906;45.658;9.272;2023-02-28T14:40:47;14.00;99.90
41168;DHT22;26906;45.658;9.272;2023-02-28T14:43:24;14.00;99.90
41168;DHT22;26906;45.658;9.272;2023-02-28T14:45:55;14.00;99.90
41168;DHT22;26906;45.658;9.272;2023-02-28T14:48:22;14.00;99.90
41168;DHT22;26906;45.658;9.272;2023-02-28T14:50:57;13.80;99.90
41168;DHT22;26906;45.658;9.272;2023-02-28T14:53:27;13.60;99.90
41168;DHT22;26906;45.658;9.272;2023-02-28T14:55:53;13.50;99.90
41168;DHT22;26906;45.658;9.272;2023-02-28T15:00:52;12.70;99.90
41168;DHT22;26906;45.658;9.272;2023-02-28T15:03:34;12.70;99.90
41168;DHT22;26906;45.658;9.272;2023-02-28T15:06:17;12.60;99.90
41168;DHT22;26906;45.658;9.272;2023-02-28T15:08:44;12.60;99.90
41168;DHT22;26906;45.658;9.272;2023-02-28T15:11:20;12.60;99.90
41168;DHT22;26906;45.658;9.272;2023-02-28T15:13:53;12.50;99.90
41168;DHT22;26906;45.658;9.272;2023-02-28T15:16:44;12.60;99.90
41168;DHT22;26906;45.658;9.272;2023-02-28T15:19:20;12.70;99.90
41168;DHT22;26906;45.658;9.272;2023-02-28T15:21:50;12.70;99.90
41168;DHT22;26906;45.658;9.272;2023-02-28T15:24:37;12.40;99.90
41168;DHT22;26906;45.658;9.272;2023-02-28T15:27:14;12.40;99.90
41168;DHT22;26906;45.658;9.272;2023-02-28T15:30:04;12.40;99.90
41168;DHT22;26906;45.658;9.272;2023-02-28T15:32:35;12.30;99.90
41168;DHT22;26906;45.658;9.272;2023-02-28T15:37:54;12.40;99.90
41168;DHT22;26906;45.658;9.272;2023-02-28T15:40:31;12.40;99.90
41168;DHT22;26906;45.658;9.272;2023-02-28T15:43:04;12.40;99.90
41168;DHT22;26906;45.658;9.272;2023-02-28T15:45:38;12.40;99.90
41168;DHT22;26906;45.658;9.272;2023-02-28T15:48:20;12.50;99.90
41168;DHT22;26906;45.658;9.272;2023-02-28T15:50:52;12.40;99.90
41168;DHT22;26906;45.658;9.272;2023-02-28T15:53:27;12.40;99.90
41168;DHT22;26906;45.658;9.272;2023-02-28T15:56:06;12.30;99.90
41168;DHT22;26906;45.658;9.272;2023-02-28T15:58:37;12.20;99.90
41168;DHT22;26906;45.658;9.272;2023-02-28T16:01:17;12.20;99.90
41168;DHT22;26906;45.658;9.272;2023-02-28T16:03:47;12.10;99.90
41168;DHT22;26906;45.658;9.272;2023-02-28T16:08:42;11.90;99.90
41168;DHT22;26906;45.658;9.272;2023-02-28T16:11:09;11.90;99.90
41168;DHT22;26906;45.658;9.272;2023-02-28T16:13:36;11.80;99.90
41168;DHT22;26906;45.658;9.272;2023-02-28T16:16:01;11.70;99.90
41168;DHT22;26906;45.658;9.272;2023-02-28T16:18:30;11.70;99.90
41168;DHT22;26906;45.658;9.272;2023-02-28T16:20:56;11.60;99.90
41168;DHT22;26906;45.658;9.272;2023-02-28T16:23:21;11.50;99.90
41168;DHT22;26906;45.658;9.272;2023-02-28T16:25:47;11.40;99.90
41168;DHT22;26906;45.658;9.272;2023-02-28T16:28:24;11.40;99.90
41168;DHT22;26906;45.658;9.272;2023-02-28T16:30:53;11.30;99.90
41168;DHT22;26906;45.658;9.272;2023-02-28T16:33:20;11.30;99.90
41168;DHT22;26906;45.658;9.272;2023-02-28T16:35:46;11.40;99.90
41168;DHT22;26906;45.658;9.272;2023-02-28T16:38:12;11.20;99.90
41168;DHT22;26906;45.658;9.272;2023-02-28T16:40:37;11.10;99.90
41168;DHT22;26906;45.658;9.272;2023-02-28T16:43:18;11.10;99.90
41168;DHT22;26906;45.658;9.272;2023-02-28T16:45:45;11.00;99.90
41168;DHT22;26906;45.658;9.272;2023-02-28T16:48:13;10.90;99.90
41168;DHT22;26906;45.658;9.272;2023-02-28T16:50:39;11.00;99.90
41168;DHT22;26906;45.658;9.272;2023-02-28T16:53:05;10.90;99.90
41168;DHT22;26906;45.658;9.272;2023-02-28T16:55:31;10.80;99.90
41168;DHT22;26906;45.658;9.272;2023-02-28T16:57:58;10.60;99.90
41168;DHT22;26906;45.658;9.272;2023-02-28T17:00:25;10.50;99.90
41168;DHT22;26906;45.658;9.272;2023-02-28T17:02:57;10.50;99.90
41168;DHT22;26906;45.658;9.272;2023-02-28T17:05:25;10.40;99.90
41168;DHT22;26906;45.658;9.272;2023-02-28T17:07:52;10.40;99.90
41168;DHT22;26906;45.658;9.272;2023-02-28T17:10:25;10.30;99.90
41168;DHT22;26906;45.658;9.272;2023-02-28T17:12:52;10.40;99.90
41168;DHT22;26906;45.658;9.272;2023-02-28T17:15:19;10.20;99.90
41168;DHT22;26906;45.658;9.272;2023-02-28T17:17:46;10.10;99.90
41168;DHT22;26906;45.658;9.272;2023-02-28T17:20:14;10.00;99.90
41168;DHT22;26906;45.658;9.272;2023-02-28T17:22:42;10.00;99.90
41168;DHT22;26906;45.658;9.272;2023-02-28T17:25:09;9.80;99.90
41168;DHT22;26906;45.658;9.272;2023-02-28T17:27:36;9.70;99.90
41168;DHT22;26906;45.658;9.272;2023-02-28T17:30:13;9.60;99.90
41168;DHT22;26906;45.658;9.272;2023-02-28T17:32:40;9.60;99.90
41168;DHT22;26906;45.658;9.272;2023-02-28T17:35:07;9.50;99.90
41168;DHT22;26906;45.658;9.272;2023-02-28T17:37:32;9.40;99.90
41168;DHT22;26906;45.658;9.272;2023-02-28T17:39:58;9.40;99.90
41168;DHT22;26906;45.658;9.272;2023-02-28T17:42:24;9.20;99.90
41168;DHT22;26906;45.658;9.272;2023-02-28T17:44:49;9.30;99.90
41168;DHT22;26906;45.658;9.272;2023-02-28T17:47:15;9.40;99.90
41168;DHT22;26906;45.658;9.272;2023-02-28T17:49:41;9.30;99.90
41168;DHT22;26906;45.658;9.272;2023-02-28T17:52:07;9.20;99.90
41168;DHT22;26906;45.658;9.272;2023-02-28T17:54:33;9.10;99.90
41168;DHT22;26906;45.658;9.272;2023-02-28T17:56:59;9.00;99.90
41168;DHT22;26906;45.658;9.272;2023-02-28T17:59:26;9.00;99.90
41168;DHT22;26906;45.658;9.272;2023-02-28T18:01:59;9.00;99.90
41168;DHT22;26906;45.658;9.272;2023-02-28T18:04:25;9.00;99.90
41168;DHT22;26906;45.658;9.272;2023-02-28T18:06:53;9.30;99.90
41168;DHT22;26906;45.658;9.272;2023-02-28T18:09:23;9.40;99.90
41168;DHT22;26906;45.658;9.272;2023-02-28T18:11:54;9.40;99.90
41168;DHT22;26906;45.658;9.272;2023-02-28T18:14:21;9.40;99.90
41168;DHT22;26906;45.658;9.272;2023-02-28T18:16:49;9.20;99.90
41168;DHT22;26906;45.658;9.272;2023-02-28T18:19:15;9.20;99.90
41168;DHT22;26906;45.658;9.272;2023-02-28T18:21:43;9.00;99.90
41168;DHT22;26906;45.658;9.272;2023-02-28T18:24:09;8.80;99.90
41168;DHT22;26906;45.658;9.272;2023-02-28T18:26:36;8.80;99.90
41168;DHT22;26906;45.658;9.272;2023-02-28T18:29:02;8.80;99.90
41168;DHT22;26906;45.658;9.272;2023-02-28T18:31:28;8.60;99.90
41168;DHT22;26906;45.658;9.272;2023-02-28T18:33:57;8.50;99.90
41168;DHT22;26906;45.658;9.272;2023-02-28T18:36:23;8.40;99.90
41168;DHT22;26906;45.658;9.272;2023-02-28T18:38:51;8.40;99.90
41168;DHT22;26906;45.658;9.272;2023-02-28T18:41:18;8.30;99.90
41168;DHT22;26906;45.658;9.272;2023-02-28T18:43:48;8.20;99.90
41168;DHT22;26906;45.658;9.272;2023-02-28T18:46:17;8.20;99.90
41168;DHT22;26906;45.658;9.272;2023-02-28T18:48:43;8.10;99.90
41168;DHT22;26906;45.658;9.272;2023-02-28T18:51:29;8.30;99.90
41168;DHT22;26906;45.658;9.272;2023-02-28T18:53:55;8.00;99.90
41168;DHT22;26906;45.658;9.272;2023-02-28T18:56:23;7.90;99.90
41168;DHT22;26906;45.658;9.272;2023-02-28T18:58:50;8.00;99.90
41168;DHT22;26906;45.658;9.272;2023-02-28T19:01:21;7.90;99.90
41168;DHT22;26906;45.658;9.272;2023-02-28T19:03:49;7.70;99.90
41168;DHT22;26906;45.658;9.272;2023-02-28T19:06:16;7.80;99.90
41168;DHT22;26906;45.658;9.272;2023-02-28T19:08:42;7.80;99.90
41168;DHT22;26906;45.658;9.272;2023-02-28T19:11:08;7.80;99.90
41168;DHT22;26906;45.658;9.272;2023-02-28T19:13:34;7.80;99.90
41168;DHT22;26906;45.658;9.272;2023-02-28T19:16:01;7.60;99.90
41168;DHT22;26906;45.658;9.272;2023-02-28T19:18:27;7.60;99.90
41168;DHT22;26906;45.658;9.272;2023-02-28T19:20:54;7.60;99.90
41168;DHT22;26906;45.658;9.272;2023-02-28T19:23:20;7.60;99.90
41168;DHT22;26906;45.658;9.272;2023-02-28T19:26:12;7.50;99.90
41168;DHT22;26906;45.658;9.272;2023-02-28T19:28:43;7.40;99.90
41168;DHT22;26906;45.658;9.272;2023-02-28T19:31:21;7.30;99.90
41168;DHT22;26906;45.658;9.272;2023-02-28T19:33:47;7.30;99.90
41168;DHT22;26906;45.658;9.272;2023-02-28T19:36:13;7.20;99.90
41168;DHT22;26906;45.658;9.272;2023-02-28T19:38:40;7.20;99.90
41168;DHT22;26906;45.658;9.272;2023-02-28T19:41:11;7.30;99.90
41168;DHT22;26906;45.658;9.272;2023-02-28T19:43:37;7.30;99.90
41168;DHT22;26906;45.658;9.272;2023-02-28T19:46:03;7.20;99.90
41168;DHT22;26906;45.658;9.272;2023-02-28T19:48:40;7.10;99.90
41168;DHT22;26906;45.658;9.272;2023-02-28T19:51:11;7.10;99.90
41168;DHT22;26906;45.658;9.272;2023-02-28T19:53:39;7.00;99.90
41168;DHT22;26906;45.658;9.272;2023-02-28T19:56:05;7.00;99.90
41168;DHT22;26906;45.658;9.272;2023-02-28T19:58:34;7.10;99.90
41168;DHT22;26906;45.658;9.272;2023-02-28T20:01:15;7.40;99.90
41168;DHT22;26906;45.658;9.272;2023-02-28T20:03:42;6.90;99.90
41168;DHT22;26906;45.658;9.272;2023-02-28T20:06:11;6.80;99.90
41168;DHT22;26906;45.658;9.272;2023-02-28T20:08:40;6.80;99.90
41168;DHT22;26906;45.658;9.272;2023-02-28T20:11:08;6.80;99.90
41168;DHT22;26906;45.658;9.272;2023-02-28T20:13:34;6.90;99.90
41168;DHT22;26906;45.658;9.272;2023-02-28T20:16:02;6.80;99.90
41168;DHT22;26906;45.658;9.272;2023-02-28T20:18:31;6.80;99.90
41168;DHT22;26906;45.658;9.272;2023-02-28T20:20:57;6.80;99.90
41168;DHT22;26906;45.658;9.272;2023-02-28T20:23:24;6.60;99.90
41168;DHT22;26906;45.658;9.272;2023-02-28T20:25:53;6.60;99.90
41168;DHT22;26906;45.658;9.272;2023-02-28T20:28:22;6.60;99.90
41168;DHT22;26906;45.658;9.272;2023-02-28T20:30:48;6.70;99.90
41168;DHT22;26906;45.658;9.272;2023-02-28T20:33:16;6.80;99.90
41168;DHT22;26906;45.658;9.272;2023-02-28T20:35:42;6.70;99.90
41168;DHT22;26906;45.658;9.272;2023-02-28T20:38:08;6.70;99.90
41168;DHT22;26906;45.658;9.272;2023-02-28T20:40:34;6.80;99.90
41168;DHT22;26906;45.658;9.272;2023-02-28T20:43:01;6.70;99.90
41168;DHT22;26906;45.658;9.272;2023-02-28T20:45:27;6.70;99.90
41168;DHT22;26906;45.658;9.272;2023-02-28T20:47:52;6.70;99.90
41168;DHT22;26906;45.658;9.272;2023-02-28T20:50:18;6.60;99.90
41168;DHT22;26906;45.658;9.272;2023-02-28T20:52:44;6.50;99.90
41168;DHT22;26906;45.658;9.272;2023-02-28T20:55:11;6.40;99.90
41168;DHT22;26906;45.658;9.272;2023-02-28T20:57:37;6.30;99.90
41168;DHT22;26906;45.658;9.272;2023-02-28T21:00:04;6.80;99.90
41168;DHT22;26906;45.658;9.272;2023-02-28T21:02:36;6.20;99.90
41168;DHT22;26906;45.658;9.272;2023-02-28T21:05:02;6.10;99.90
41168;DHT22;26906;45.658;9.272;2023-02-28T21:07:29;6.10;99.90
41168;DHT22;26906;45.658;9.272;2023-02-28T21:09:55;6.20;99.90
41168;DHT22;26906;45.658;9.272;2023-02-28T21:12:21;6.30;99.90
41168;DHT22;26906;45.658;9.272;2023-02-28T21:14:47;6.40;99.90
41168;DHT22;26906;45.658;9.272;2023-02-28T21:17:13;6.30;99.90
41168;DHT22;26906;45.658;9.272;2023-02-28T21:19:42;6.40;99.90
41168;DHT22;26906;45.658;9.272;2023-02-28T21:22:07;6.30;99.90
41168;DHT22;26906;45.658;9.272;2023-02-28T21:24:33;6.70;99.90
41168;DHT22;26906;45.658;9.272;2023-02-28T21:26:58;6.50;99.90
41168;DHT22;26906;45.658;9.272;2023-02-28T21:29:29;6.60;99.90
41168;DHT22;26906;45.658;9.272;2023-02-28T21:31:55;6.60;99.90
41168;DHT22;26906;45.658;9.272;2023-02-28T21:34:21;6.40;99.90
41168;DHT22;26906;45.658;9.272;2023-02-28T21:36:47;6.30;99.90
41168;DHT22;26906;45.658;9.272;2023-02-28T21:39:16;6.30;99.90
41168;DHT22;26906;45.658;9.272;2023-02-28T21:41:42;6.40;99.90
41168;DHT22;26906;45.658;9.272;2023-02-28T21:44:10;6.60;99.90
41168;DHT22;26906;45.658;9.272;2023-02-28T21:46:44;6.70;99.90
